sensor_id;sensor_type;location;lat;lon;timestamp;P1;durP1;ratioP1;P2;durP2;ratioP2
8675;SDS011;4375;52.486;13.424;2024-02-14T00:02:00;22.57;;;8.43;;
8675;SDS011;4375;52.486;13.424;2024-02-14T00:04:26;24.70;;;8.70;;
8675;SDS011;4375;52.486;13.424;2024-02-14T00:06:51;27.13;;;9.07;;
8675;SDS011;4375;52.486;13.424;2024-02-14T00:09:18;30.13;;;9.77;;
8675;SDS011;4375;52.486;13.424;2024-02-14T00:11:44;24.07;;;8.77;;
8675;SDS011;4375;52.486;13.424;2024-02-14T00:14:09;25.90;;;9.33;;
8675;SDS011;4375;52.486;13.424;2024-02-14T00:16:35;25.10;;;8.43;;
8675;SDS011;4375;52.486;13.424;2024-02-14T00:19:01;24.53;;;8.33;;
8675;SDS011;4375;52.486;13.424;2024-02-14T00:21:27;27.47;;;9.23;;
8675;SDS011;4375;52.486;13.424;2024-02-14T00:23:53;25.03;;;8.63;;
8675;SDS011;4375;52.486;13.424;2024-02-14T00:26:18;26.43;;;10.00;;
8675;SDS011;4375;52.486;13.424;2024-02-14T00:28:44;25.13;;;7.50;;
8675;SDS011;4375;52.486;13.424;2024-02-14T00:31:10;29.03;;;9.40;;
8675;SDS011;4375;52.486;13.424;2024-02-14T00:33:35;25.60;;;8.67;;
8675;SDS011;4375;52.486;13.424;2024-02-14T00:36:01;22.60;;;7.43;;
8675;SDS011;4375;52.486;13.424;2024-02-14T00:38:26;26.53;;;8.83;;
8675;SDS011;4375;52.486;13.424;2024-02-14T00:40:52;24.57;;;9.00;;
8675;SDS011;4375;52.486;13.424;2024-02-14T00:43:18;25.80;;;8.03;;
8675;SDS011;4375;52.486;13.424;2024-02-14T00:45:43;26.67;;;8.07;;
8675;SDS011;4375;52.486;13.424;2024-02-14T00:48:09;24.43;;;8.60;;
8675;SDS011;4375;52.486;13.424;2024-02-14T00:50:34;28.87;;;8.50;;
8675;SDS011;4375;52.486;13.424;2024-02-14T00:53:00;23.37;;;8.27;;
8675;SDS011;4375;52.486;13.424;2024-02-14T00:55:26;23.07;;;8.17;;
8675;SDS011;4375;52.486;13.424;2024-02-14T00:57:51;26.03;;;8.47;;
8675;SDS011;4375;52.486;13.424;2024-02-14T01:00:17;26.30;;;7.50;;
8675;SDS011;4375;52.486;13.424;2024-02-14T01:02:43;24.30;;;8.73;;
8675;SDS011;4375;52.486;13.424;2024-02-14T01:05:09;23.10;;;7.90;;
8675;SDS011;4375;52.486;13.424;2024-02-14T01:07:35;22.30;;;8.30;;
8675;SDS011;4375;52.486;13.424;2024-02-14T01:10:01;23.63;;;7.80;;
8675;SDS011;4375;52.486;13.424;2024-02-14T01:12:27;26.53;;;8.60;;
8675;SDS011;4375;52.486;13.424;2024-02-14T01:14:54;22.67;;;7.00;;
8675;SDS011;4375;52.486;13.424;2024-02-14T01:17:20;20.87;;;6.83;;
8675;SDS011;4375;52.486;13.424;2024-02-14T01:19:45;23.70;;;7.20;;
8675;SDS011;4375;52.486;13.424;2024-02-14T01:22:11;22.80;;;6.83;;
8675;SDS011;4375;52.486;13.424;2024-02-14T01:24:37;22.20;;;7.87;;
8675;SDS011;4375;52.486;13.424;2024-02-14T01:27:02;19.80;;;6.07;;
8675;SDS011;4375;52.486;13.424;2024-02-14T01:29:28;19.73;;;7.00;;
8675;SDS011;4375;52.486;13.424;2024-02-14T01:31:54;23.07;;;6.60;;
8675;SDS011;4375;52.486;13.424;2024-02-14T01:34:20;24.57;;;7.00;;
8675;SDS011;4375;52.486;13.424;2024-02-14T01:36:47;21.90;;;7.70;;
8675;SDS011;4375;52.486;13.424;2024-02-14T01:39:13;20.77;;;6.27;;
8675;SDS011;4375;52.486;13.424;2024-02-14T01:41:38;25.10;;;8.30;;
8675;SDS011;4375;52.486;13.424;2024-02-14T01:44:10;25.00;;;7.57;;
8675;SDS011;4375;52.486;13.424;2024-02-14T01:46:35;22.40;;;7.37;;
8675;SDS011;4375;52.486;13.424;2024-02-14T01:49:01;24.47;;;7.30;;
8675;SDS011;4375;52.486;13.424;2024-02-14T01:51:28;22.30;;;7.40;;
8675;SDS011;4375;52.486;13.424;2024-02-14T01:53:54;24.40;;;8.07;;
8675;SDS011;4375;52.486;13.424;2024-02-14T01:56:20;24.10;;;7.97;;
8675;SDS011;4375;52.486;13.424;2024-02-14T01:58:46;25.67;;;8.13;;
8675;SDS011;4375;52.486;13.424;2024-02-14T02:01:12;21.13;;;7.30;;
8675;SDS011;4375;52.486;13.424;2024-02-14T02:03:38;22.73;;;7.43;;
8675;SDS011;4375;52.486;13.424;2024-02-14T02:06:05;24.60;;;9.20;;
8675;SDS011;4375;52.486;13.424;2024-02-14T02:08:31;25.20;;;7.83;;
8675;SDS011;4375;52.486;13.424;2024-02-14T02:10:57;22.83;;;6.70;;
8675;SDS011;4375;52.486;13.424;2024-02-14T02:13:23;22.63;;;8.10;;
8675;SDS011;4375;52.486;13.424;2024-02-14T02:15:50;25.40;;;7.40;;
8675;SDS011;4375;52.486;13.424;2024-02-14T02:18:18;20.60;;;6.77;;
8675;SDS011;4375;52.486;13.424;2024-02-14T02:20:44;21.27;;;7.70;;
8675;SDS011;4375;52.486;13.424;2024-02-14T02:23:13;22.30;;;7.60;;
8675;SDS011;4375;52.486;13.424;2024-02-14T02:25:41;21.03;;;7.40;;
8675;SDS011;4375;52.486;13.424;2024-02-14T02:28:08;23.60;;;7.50;;
8675;SDS011;4375;52.486;13.424;2024-02-14T02:30:34;20.33;;;7.57;;
8675;SDS011;4375;52.486;13.424;2024-02-14T02:33:00;21.23;;;7.50;;
8675;SDS011;4375;52.486;13.424;2024-02-14T02:35:27;22.70;;;7.07;;
8675;SDS011;4375;52.486;13.424;2024-02-14T02:37:53;21.93;;;6.40;;
8675;SDS011;4375;52.486;13.424;2024-02-14T02:40:19;22.63;;;6.53;;
8675;SDS011;4375;52.486;13.424;2024-02-14T02:42:46;21.70;;;7.00;;
8675;SDS011;4375;52.486;13.424;2024-02-14T02:45:12;24.87;;;6.90;;
8675;SDS011;4375;52.486;13.424;2024-02-14T02:47:38;25.23;;;6.90;;
8675;SDS011;4375;52.486;13.424;2024-02-14T02:50:04;21.03;;;6.60;;
8675;SDS011;4375;52.486;13.424;2024-02-14T02:52:31;22.53;;;6.67;;
8675;SDS011;4375;52.486;13.424;2024-02-14T02:54:56;21.53;;;6.73;;
8675;SDS011;4375;52.486;13.424;2024-02-14T02:57:22;21.17;;;7.40;;
8675;SDS011;4375;52.486;13.424;2024-02-14T02:59:48;22.43;;;6.87;;
8675;SDS011;4375;52.486;13.424;2024-02-14T03:02:14;21.33;;;7.20;;
8675;SDS011;4375;52.486;13.424;2024-02-14T03:04:40;20.30;;;6.70;;
8675;SDS011;4375;52.486;13.424;2024-02-14T03:07:07;20.87;;;6.13;;
8675;SDS011;4375;52.486;13.424;2024-02-14T03:09:36;21.90;;;6.83;;
8675;SDS011;4375;52.486;13.424;2024-02-14T03:12:02;21.10;;;6.73;;
8675;SDS011;4375;52.486;13.424;2024-02-14T03:14:29;19.27;;;6.57;;
8675;SDS011;4375;52.486;13.424;2024-02-14T03:16:57;23.60;;;6.90;;
8675;SDS011;4375;52.486;13.424;2024-02-14T03:19:27;30.27;;;6.00;;
8675;SDS011;4375;52.486;13.424;2024-02-14T03:21:53;21.63;;;6.70;;
8675;SDS011;4375;52.486;13.424;2024-02-14T03:24:21;23.00;;;7.10;;
8675;SDS011;4375;52.486;13.424;2024-02-14T03:26:50;23.67;;;6.40;;
8675;SDS011;4375;52.486;13.424;2024-02-14T03:29:19;19.43;;;6.30;;
8675;SDS011;4375;52.486;13.424;2024-02-14T03:31:46;20.63;;;5.90;;
8675;SDS011;4375;52.486;13.424;2024-02-14T03:34:12;21.80;;;5.50;;
8675;SDS011;4375;52.486;13.424;2024-02-14T03:36:38;22.00;;;6.60;;
8675;SDS011;4375;52.486;13.424;2024-02-14T03:39:04;25.80;;;6.60;;
8675;SDS011;4375;52.486;13.424;2024-02-14T03:41:31;20.43;;;6.47;;
8675;SDS011;4375;52.486;13.424;2024-02-14T03:43:57;19.90;;;6.53;;
8675;SDS011;4375;52.486;13.424;2024-02-14T03:46:26;18.90;;;5.83;;
8675;SDS011;4375;52.486;13.424;2024-02-14T03:48:52;22.30;;;6.23;;
8675;SDS011;4375;52.486;13.424;2024-02-14T03:51:19;24.60;;;7.40;;
8675;SDS011;4375;52.486;13.424;2024-02-14T03:53:44;24.30;;;8.30;;
8675;SDS011;4375;52.486;13.424;2024-02-14T03:56:10;20.00;;;6.70;;
8675;SDS011;4375;52.486;13.424;2024-02-14T03:58:37;22.17;;;7.03;;
8675;SDS011;4375;52.486;13.424;2024-02-14T04:01:04;20.83;;;7.10;;
8675;SDS011;4375;52.486;13.424;2024-02-14T04:03:30;22.57;;;7.27;;
8675;SDS011;4375;52.486;13.424;2024-02-14T04:05:55;23.17;;;7.03;;
8675;SDS011;4375;52.486;13.424;2024-02-14T04:08:22;24.07;;;7.20;;
8675;SDS011;4375;52.486;13.424;2024-02-14T04:10:49;24.17;;;7.53;;
8675;SDS011;4375;52.486;13.424;2024-02-14T04:13:20;22.13;;;7.97;;
8675;SDS011;4375;52.486;13.424;2024-02-14T04:15:47;22.63;;;7.33;;
8675;SDS011;4375;52.486;13.424;2024-02-14T04:18:13;23.23;;;7.80;;
8675;SDS011;4375;52.486;13.424;2024-02-14T04:20:40;23.50;;;7.73;;
8675;SDS011;4375;52.486;13.424;2024-02-14T04:23:06;23.00;;;7.70;;
8675;SDS011;4375;52.486;13.424;2024-02-14T04:25:32;26.53;;;7.73;;
8675;SDS011;4375;52.486;13.424;2024-02-14T04:27:59;24.63;;;7.60;;
8675;SDS011;4375;52.486;13.424;2024-02-14T04:30:25;23.50;;;7.80;;
8675;SDS011;4375;52.486;13.424;2024-02-14T04:32:50;22.37;;;8.40;;
8675;SDS011;4375;52.486;13.424;2024-02-14T04:35:17;21.63;;;7.57;;
8675;SDS011;4375;52.486;13.424;2024-02-14T04:37:44;23.33;;;9.03;;
8675;SDS011;4375;52.486;13.424;2024-02-14T04:40:12;24.87;;;8.93;;
8675;SDS011;4375;52.486;13.424;2024-02-14T04:42:37;24.10;;;8.10;;
8675;SDS011;4375;52.486;13.424;2024-02-14T04:45:03;25.30;;;8.83;;
8675;SDS011;4375;52.486;13.424;2024-02-14T04:47:29;22.57;;;7.87;;
8675;SDS011;4375;52.486;13.424;2024-02-14T04:49:55;26.43;;;9.20;;
8675;SDS011;4375;52.486;13.424;2024-02-14T04:52:21;22.60;;;8.13;;
8675;SDS011;4375;52.486;13.424;2024-02-14T04:54:46;27.20;;;8.33;;
8675;SDS011;4375;52.486;13.424;2024-02-14T04:57:12;22.17;;;7.27;;
8675;SDS011;4375;52.486;13.424;2024-02-14T04:59:38;21.43;;;7.10;;
8675;SDS011;4375;52.486;13.424;2024-02-14T05:02:03;23.50;;;7.37;;
8675;SDS011;4375;52.486;13.424;2024-02-14T05:04:29;23.03;;;8.40;;
8675;SDS011;4375;52.486;13.424;2024-02-14T05:06:54;21.80;;;7.63;;
8675;SDS011;4375;52.486;13.424;2024-02-14T05:09:20;21.97;;;7.20;;
8675;SDS011;4375;52.486;13.424;2024-02-14T05:11:45;21.20;;;7.10;;
8675;SDS011;4375;52.486;13.424;2024-02-14T05:14:11;23.20;;;8.33;;
8675;SDS011;4375;52.486;13.424;2024-02-14T05:16:37;22.43;;;8.37;;
8675;SDS011;4375;52.486;13.424;2024-02-14T05:19:02;28.87;;;8.93;;
8675;SDS011;4375;52.486;13.424;2024-02-14T05:21:28;21.47;;;8.30;;
8675;SDS011;4375;52.486;13.424;2024-02-14T05:23:54;22.90;;;8.33;;
8675;SDS011;4375;52.486;13.424;2024-02-14T05:26:20;26.47;;;7.83;;
8675;SDS011;4375;52.486;13.424;2024-02-14T05:28:46;24.90;;;8.57;;
8675;SDS011;4375;52.486;13.424;2024-02-14T05:31:11;22.87;;;7.90;;
8675;SDS011;4375;52.486;13.424;2024-02-14T05:33:37;23.13;;;8.23;;
8675;SDS011;4375;52.486;13.424;2024-02-14T05:36:02;21.40;;;7.90;;
8675;SDS011;4375;52.486;13.424;2024-02-14T05:38:28;22.00;;;7.40;;
8675;SDS011;4375;52.486;13.424;2024-02-14T05:40:54;22.30;;;7.27;;
8675;SDS011;4375;52.486;13.424;2024-02-14T05:43:20;25.80;;;8.93;;
8675;SDS011;4375;52.486;13.424;2024-02-14T05:45:47;24.40;;;8.30;;
8675;SDS011;4375;52.486;13.424;2024-02-14T05:48:12;25.70;;;8.43;;
8675;SDS011;4375;52.486;13.424;2024-02-14T05:50:39;22.47;;;8.20;;
8675;SDS011;4375;52.486;13.424;2024-02-14T05:53:05;29.13;;;8.53;;
8675;SDS011;4375;52.486;13.424;2024-02-14T05:55:31;22.87;;;7.70;;
8675;SDS011;4375;52.486;13.424;2024-02-14T05:57:57;23.03;;;7.13;;
8675;SDS011;4375;52.486;13.424;2024-02-14T06:00:24;22.73;;;7.83;;
8675;SDS011;4375;52.486;13.424;2024-02-14T06:02:50;28.53;;;8.90;;
8675;SDS011;4375;52.486;13.424;2024-02-14T06:05:16;28.87;;;8.77;;
8675;SDS011;4375;52.486;13.424;2024-02-14T06:07:42;22.30;;;7.90;;
8675;SDS011;4375;52.486;13.424;2024-02-14T06:10:12;22.53;;;7.73;;
8675;SDS011;4375;52.486;13.424;2024-02-14T06:12:38;20.80;;;6.93;;
8675;SDS011;4375;52.486;13.424;2024-02-14T06:15:08;28.13;;;11.47;;
8675;SDS011;4375;52.486;13.424;2024-02-14T06:17:34;24.40;;;8.00;;
8675;SDS011;4375;52.486;13.424;2024-02-14T06:20:00;32.20;;;7.70;;
8675;SDS011;4375;52.486;13.424;2024-02-14T06:22:30;21.17;;;7.67;;
8675;SDS011;4375;52.486;13.424;2024-02-14T06:24:57;25.97;;;8.47;;
8675;SDS011;4375;52.486;13.424;2024-02-14T06:27:23;31.93;;;7.73;;
8675;SDS011;4375;52.486;13.424;2024-02-14T06:29:49;23.37;;;7.53;;
8675;SDS011;4375;52.486;13.424;2024-02-14T06:32:14;23.97;;;7.00;;
8675;SDS011;4375;52.486;13.424;2024-02-14T06:34:40;25.23;;;7.17;;
8675;SDS011;4375;52.486;13.424;2024-02-14T06:37:05;23.10;;;7.47;;
8675;SDS011;4375;52.486;13.424;2024-02-14T06:39:31;25.53;;;7.10;;
8675;SDS011;4375;52.486;13.424;2024-02-14T06:41:57;23.83;;;7.80;;
8675;SDS011;4375;52.486;13.424;2024-02-14T06:44:23;25.90;;;8.50;;
8675;SDS011;4375;52.486;13.424;2024-02-14T06:46:49;25.03;;;7.37;;
8675;SDS011;4375;52.486;13.424;2024-02-14T06:49:15;20.60;;;6.20;;
8675;SDS011;4375;52.486;13.424;2024-02-14T06:51:41;20.07;;;6.20;;
8675;SDS011;4375;52.486;13.424;2024-02-14T06:54:07;22.33;;;7.03;;
8675;SDS011;4375;52.486;13.424;2024-02-14T06:56:33;22.77;;;7.67;;
8675;SDS011;4375;52.486;13.424;2024-02-14T06:58:59;24.07;;;7.33;;
8675;SDS011;4375;52.486;13.424;2024-02-14T07:01:26;20.00;;;6.13;;
8675;SDS011;4375;52.486;13.424;2024-02-14T07:03:52;22.60;;;7.30;;
8675;SDS011;4375;52.486;13.424;2024-02-14T07:06:18;26.90;;;6.67;;
8675;SDS011;4375;52.486;13.424;2024-02-14T07:08:43;24.67;;;7.00;;
8675;SDS011;4375;52.486;13.424;2024-02-14T07:11:09;28.17;;;7.87;;
8675;SDS011;4375;52.486;13.424;2024-02-14T07:13:36;27.17;;;6.33;;
8675;SDS011;4375;52.486;13.424;2024-02-14T07:16:01;37.03;;;7.67;;
8675;SDS011;4375;52.486;13.424;2024-02-14T07:18:27;19.50;;;6.07;;
8675;SDS011;4375;52.486;13.424;2024-02-14T07:20:53;20.57;;;6.73;;
8675;SDS011;4375;52.486;13.424;2024-02-14T07:23:19;23.80;;;6.87;;
8675;SDS011;4375;52.486;13.424;2024-02-14T07:25:45;21.10;;;6.80;;
8675;SDS011;4375;52.486;13.424;2024-02-14T07:28:10;19.57;;;6.50;;
8675;SDS011;4375;52.486;13.424;2024-02-14T07:30:36;19.20;;;6.43;;
8675;SDS011;4375;52.486;13.424;2024-02-14T07:33:02;22.07;;;6.27;;
8675;SDS011;4375;52.486;13.424;2024-02-14T07:35:28;19.63;;;6.03;;
8675;SDS011;4375;52.486;13.424;2024-02-14T07:37:54;26.30;;;6.20;;
8675;SDS011;4375;52.486;13.424;2024-02-14T07:40:20;20.93;;;5.90;;
8675;SDS011;4375;52.486;13.424;2024-02-14T07:42:47;23.90;;;6.77;;
8675;SDS011;4375;52.486;13.424;2024-02-14T07:45:12;23.03;;;6.53;;
8675;SDS011;4375;52.486;13.424;2024-02-14T07:47:39;22.03;;;6.13;;
8675;SDS011;4375;52.486;13.424;2024-02-14T07:50:05;26.47;;;7.47;;
8675;SDS011;4375;52.486;13.424;2024-02-14T07:52:31;24.40;;;6.37;;
8675;SDS011;4375;52.486;13.424;2024-02-14T07:54:57;23.67;;;6.13;;
8675;SDS011;4375;52.486;13.424;2024-02-14T07:57:23;20.03;;;6.80;;
8675;SDS011;4375;52.486;13.424;2024-02-14T07:59:50;27.70;;;7.37;;
8675;SDS011;4375;52.486;13.424;2024-02-14T08:02:16;29.97;;;6.80;;
8675;SDS011;4375;52.486;13.424;2024-02-14T08:04:42;25.70;;;6.87;;
8675;SDS011;4375;52.486;13.424;2024-02-14T08:07:08;25.53;;;8.20;;
8675;SDS011;4375;52.486;13.424;2024-02-14T08:09:36;22.93;;;8.03;;
8675;SDS011;4375;52.486;13.424;2024-02-14T08:12:04;27.40;;;8.53;;
8675;SDS011;4375;52.486;13.424;2024-02-14T08:14:30;25.20;;;8.30;;
8675;SDS011;4375;52.486;13.424;2024-02-14T08:16:56;24.27;;;7.60;;
8675;SDS011;4375;52.486;13.424;2024-02-14T08:19:22;32.60;;;8.40;;
8675;SDS011;4375;52.486;13.424;2024-02-14T08:21:48;23.10;;;7.43;;
8675;SDS011;4375;52.486;13.424;2024-02-14T08:24:13;27.13;;;7.60;;
8675;SDS011;4375;52.486;13.424;2024-02-14T08:26:39;30.87;;;8.13;;
8675;SDS011;4375;52.486;13.424;2024-02-14T08:29:05;23.00;;;7.73;;
8675;SDS011;4375;52.486;13.424;2024-02-14T08:31:30;25.63;;;7.37;;
8675;SDS011;4375;52.486;13.424;2024-02-14T08:33:57;25.10;;;7.60;;
8675;SDS011;4375;52.486;13.424;2024-02-14T08:36:23;21.00;;;6.90;;
8675;SDS011;4375;52.486;13.424;2024-02-14T08:38:49;24.50;;;8.30;;
8675;SDS011;4375;52.486;13.424;2024-02-14T08:41:15;22.67;;;7.13;;
8675;SDS011;4375;52.486;13.424;2024-02-14T08:43:40;24.03;;;6.50;;
8675;SDS011;4375;52.486;13.424;2024-02-14T08:46:12;21.97;;;7.37;;
8675;SDS011;4375;52.486;13.424;2024-02-14T08:48:38;22.43;;;6.37;;
8675;SDS011;4375;52.486;13.424;2024-02-14T08:51:11;18.77;;;5.93;;
8675;SDS011;4375;52.486;13.424;2024-02-14T08:53:38;24.70;;;6.80;;
8675;SDS011;4375;52.486;13.424;2024-02-14T08:56:04;24.10;;;7.23;;
8675;SDS011;4375;52.486;13.424;2024-02-14T08:58:30;30.00;;;8.97;;
8675;SDS011;4375;52.486;13.424;2024-02-14T09:00:55;20.30;;;6.67;;
8675;SDS011;4375;52.486;13.424;2024-02-14T09:03:21;24.00;;;8.60;;
8675;SDS011;4375;52.486;13.424;2024-02-14T09:05:47;32.90;;;13.57;;
8675;SDS011;4375;52.486;13.424;2024-02-14T09:08:14;36.23;;;14.10;;
8675;SDS011;4375;52.486;13.424;2024-02-14T09:10:39;34.53;;;16.70;;
8675;SDS011;4375;52.486;13.424;2024-02-14T09:13:05;29.37;;;12.20;;
8675;SDS011;4375;52.486;13.424;2024-02-14T09:15:32;34.63;;;15.07;;
8675;SDS011;4375;52.486;13.424;2024-02-14T09:17:58;31.63;;;11.50;;
8675;SDS011;4375;52.486;13.424;2024-02-14T09:20:25;36.63;;;12.87;;
8675;SDS011;4375;52.486;13.424;2024-02-14T09:22:51;25.80;;;10.17;;
8675;SDS011;4375;52.486;13.424;2024-02-14T09:25:16;27.33;;;9.63;;
8675;SDS011;4375;52.486;13.424;2024-02-14T09:27:42;25.30;;;8.60;;
8675;SDS011;4375;52.486;13.424;2024-02-14T09:30:09;27.50;;;8.80;;
8675;SDS011;4375;52.486;13.424;2024-02-14T09:32:35;26.87;;;8.30;;
8675;SDS011;4375;52.486;13.424;2024-02-14T09:35:00;25.73;;;6.30;;
8675;SDS011;4375;52.486;13.424;2024-02-14T09:37:28;22.40;;;6.53;;
8675;SDS011;4375;52.486;13.424;2024-02-14T09:39:54;22.70;;;4.53;;
8675;SDS011;4375;52.486;13.424;2024-02-14T09:42:22;24.70;;;4.13;;
8675;SDS011;4375;52.486;13.424;2024-02-14T09:44:58;17.77;;;3.97;;
8675;SDS011;4375;52.486;13.424;2024-02-14T09:47:24;20.83;;;4.77;;
8675;SDS011;4375;52.486;13.424;2024-02-14T09:49:54;17.80;;;4.00;;
8675;SDS011;4375;52.486;13.424;2024-02-14T09:52:21;15.90;;;3.40;;
8675;SDS011;4375;52.486;13.424;2024-02-14T09:54:48;18.10;;;4.03;;
8675;SDS011;4375;52.486;13.424;2024-02-14T09:57:14;17.33;;;3.83;;
8675;SDS011;4375;52.486;13.424;2024-02-14T09:59:42;16.30;;;3.77;;
8675;SDS011;4375;52.486;13.424;2024-02-14T10:02:09;20.33;;;3.93;;
8675;SDS011;4375;52.486;13.424;2024-02-14T10:04:35;21.60;;;3.73;;
8675;SDS011;4375;52.486;13.424;2024-02-14T10:07:03;18.70;;;3.80;;
8675;SDS011;4375;52.486;13.424;2024-02-14T10:09:30;17.43;;;3.80;;
8675;SDS011;4375;52.486;13.424;2024-02-14T10:11:56;16.87;;;4.27;;
8675;SDS011;4375;52.486;13.424;2024-02-14T10:14:22;14.97;;;3.30;;
8675;SDS011;4375;52.486;13.424;2024-02-14T10:16:48;20.13;;;4.50;;
8675;SDS011;4375;52.486;13.424;2024-02-14T10:19:15;18.50;;;4.00;;
8675;SDS011;4375;52.486;13.424;2024-02-14T10:21:42;17.70;;;3.10;;
8675;SDS011;4375;52.486;13.424;2024-02-14T10:24:19;17.93;;;4.73;;
8675;SDS011;4375;52.486;13.424;2024-02-14T10:26:45;18.83;;;4.30;;
8675;SDS011;4375;52.486;13.424;2024-02-14T10:29:11;25.20;;;5.03;;
8675;SDS011;4375;52.486;13.424;2024-02-14T10:31:36;18.20;;;5.10;;
8675;SDS011;4375;52.486;13.424;2024-02-14T10:34:02;19.17;;;4.00;;
8675;SDS011;4375;52.486;13.424;2024-02-14T10:36:31;20.13;;;4.90;;
8675;SDS011;4375;52.486;13.424;2024-02-14T10:38:59;18.97;;;4.37;;
8675;SDS011;4375;52.486;13.424;2024-02-14T10:41:26;17.13;;;3.60;;
8675;SDS011;4375;52.486;13.424;2024-02-14T10:43:56;19.13;;;4.60;;
8675;SDS011;4375;52.486;13.424;2024-02-14T10:46:22;17.67;;;4.23;;
8675;SDS011;4375;52.486;13.424;2024-02-14T10:48:52;17.67;;;3.90;;
8675;SDS011;4375;52.486;13.424;2024-02-14T10:51:22;18.73;;;3.87;;
8675;SDS011;4375;52.486;13.424;2024-02-14T10:53:50;17.00;;;4.37;;
8675;SDS011;4375;52.486;13.424;2024-02-14T10:56:18;18.20;;;4.60;;
8675;SDS011;4375;52.486;13.424;2024-02-14T10:58:47;16.73;;;3.30;;
8675;SDS011;4375;52.486;13.424;2024-02-14T11:01:14;15.63;;;3.50;;
8675;SDS011;4375;52.486;13.424;2024-02-14T11:03:41;18.80;;;4.30;;
8675;SDS011;4375;52.486;13.424;2024-02-14T11:06:08;21.80;;;5.00;;
8675;SDS011;4375;52.486;13.424;2024-02-14T11:08:35;18.87;;;4.03;;
8675;SDS011;4375;52.486;13.424;2024-02-14T11:11:02;17.07;;;4.07;;
8675;SDS011;4375;52.486;13.424;2024-02-14T11:13:30;19.37;;;3.70;;
8675;SDS011;4375;52.486;13.424;2024-02-14T11:15:57;17.07;;;3.47;;
8675;SDS011;4375;52.486;13.424;2024-02-14T11:18:27;16.60;;;3.13;;
8675;SDS011;4375;52.486;13.424;2024-02-14T11:20:58;21.20;;;3.50;;
8675;SDS011;4375;52.486;13.424;2024-02-14T11:23:23;18.03;;;3.33;;
8675;SDS011;4375;52.486;13.424;2024-02-14T11:25:49;17.90;;;3.47;;
8675;SDS011;4375;52.486;13.424;2024-02-14T11:28:16;17.73;;;3.47;;
8675;SDS011;4375;52.486;13.424;2024-02-14T11:30:49;18.20;;;3.33;;
8675;SDS011;4375;52.486;13.424;2024-02-14T11:33:15;15.30;;;3.80;;
8675;SDS011;4375;52.486;13.424;2024-02-14T11:35:46;19.60;;;3.80;;
8675;SDS011;4375;52.486;13.424;2024-02-14T11:38:17;17.23;;;4.17;;
8675;SDS011;4375;52.486;13.424;2024-02-14T11:40:44;16.40;;;3.50;;
8675;SDS011;4375;52.486;13.424;2024-02-14T11:43:13;17.63;;;3.47;;
8675;SDS011;4375;52.486;13.424;2024-02-14T11:45:46;18.60;;;3.37;;
8675;SDS011;4375;52.486;13.424;2024-02-14T11:48:15;16.50;;;3.47;;
8675;SDS011;4375;52.486;13.424;2024-02-14T11:50:43;18.20;;;3.67;;
8675;SDS011;4375;52.486;13.424;2024-02-14T11:53:13;21.40;;;4.50;;
8675;SDS011;4375;52.486;13.424;2024-02-14T11:55:42;16.50;;;3.83;;
8675;SDS011;4375;52.486;13.424;2024-02-14T11:58:11;17.83;;;3.47;;
8675;SDS011;4375;52.486;13.424;2024-02-14T12:00:55;22.23;;;4.80;;
8675;SDS011;4375;52.486;13.424;2024-02-14T12:03:39;17.17;;;3.50;;
8675;SDS011;4375;52.486;13.424;2024-02-14T12:06:16;20.63;;;4.00;;
8675;SDS011;4375;52.486;13.424;2024-02-14T12:08:47;19.47;;;4.27;;
8675;SDS011;4375;52.486;13.424;2024-02-14T12:11:23;17.10;;;4.27;;
8675;SDS011;4375;52.486;13.424;2024-02-14T12:14:02;16.83;;;3.70;;
8675;SDS011;4375;52.486;13.424;2024-02-14T12:16:30;22.00;;;3.93;;
8675;SDS011;4375;52.486;13.424;2024-02-14T12:19:04;17.17;;;3.43;;
8675;SDS011;4375;52.486;13.424;2024-02-14T12:21:50;16.70;;;3.20;;
8675;SDS011;4375;52.486;13.424;2024-02-14T12:24:55;19.37;;;3.90;;
8675;SDS011;4375;52.486;13.424;2024-02-14T13:18:49;16.63;;;3.83;;
8675;SDS011;4375;52.486;13.424;2024-02-14T13:57:43;20.37;;;3.80;;
8675;SDS011;4375;52.486;13.424;2024-02-14T14:00:08;19.90;;;3.90;;
8675;SDS011;4375;52.486;13.424;2024-02-14T14:02:35;20.67;;;4.00;;
8675;SDS011;4375;52.486;13.424;2024-02-14T14:05:06;17.40;;;3.80;;
8675;SDS011;4375;52.486;13.424;2024-02-14T14:07:33;18.70;;;4.27;;
8675;SDS011;4375;52.486;13.424;2024-02-14T14:10:01;19.90;;;4.10;;
8675;SDS011;4375;52.486;13.424;2024-02-14T14:12:28;16.30;;;3.80;;
8675;SDS011;4375;52.486;13.424;2024-02-14T14:14:53;17.83;;;4.40;;
8675;SDS011;4375;52.486;13.424;2024-02-14T14:17:19;15.60;;;3.40;;
8675;SDS011;4375;52.486;13.424;2024-02-14T14:19:45;17.10;;;4.03;;
8675;SDS011;4375;52.486;13.424;2024-02-14T14:22:10;16.70;;;3.50;;
8675;SDS011;4375;52.486;13.424;2024-02-14T14:24:36;17.70;;;4.03;;
8675;SDS011;4375;52.486;13.424;2024-02-14T14:27:01;17.03;;;3.33;;
8675;SDS011;4375;52.486;13.424;2024-02-14T14:29:27;16.60;;;4.07;;
8675;SDS011;4375;52.486;13.424;2024-02-14T14:31:53;20.37;;;4.00;;
8675;SDS011;4375;52.486;13.424;2024-02-14T14:34:19;16.57;;;3.27;;
8675;SDS011;4375;52.486;13.424;2024-02-14T14:36:45;16.90;;;3.77;;
8675;SDS011;4375;52.486;13.424;2024-02-14T14:39:10;19.40;;;4.27;;
8675;SDS011;4375;52.486;13.424;2024-02-14T14:41:37;19.63;;;4.20;;
8675;SDS011;4375;52.486;13.424;2024-02-14T14:44:03;16.00;;;4.20;;
8675;SDS011;4375;52.486;13.424;2024-02-14T14:46:29;18.30;;;4.53;;
8675;SDS011;4375;52.486;13.424;2024-02-14T14:48:56;17.20;;;4.77;;
8675;SDS011;4375;52.486;13.424;2024-02-14T14:51:23;16.27;;;3.80;;
8675;SDS011;4375;52.486;13.424;2024-02-14T14:53:48;32.60;;;4.83;;
8675;SDS011;4375;52.486;13.424;2024-02-14T14:56:14;17.93;;;4.27;;
8675;SDS011;4375;52.486;13.424;2024-02-14T14:58:40;17.83;;;4.60;;
8675;SDS011;4375;52.486;13.424;2024-02-14T15:01:07;21.37;;;6.60;;
8675;SDS011;4375;52.486;13.424;2024-02-14T15:03:34;20.73;;;4.50;;
8675;SDS011;4375;52.486;13.424;2024-02-14T15:05:59;20.03;;;4.67;;
8675;SDS011;4375;52.486;13.424;2024-02-14T15:08:25;17.80;;;4.30;;
8675;SDS011;4375;52.486;13.424;2024-02-14T15:10:52;20.00;;;4.37;;
8675;SDS011;4375;52.486;13.424;2024-02-14T15:13:20;17.80;;;4.30;;
8675;SDS011;4375;52.486;13.424;2024-02-14T15:15:49;17.10;;;4.00;;
8675;SDS011;4375;52.486;13.424;2024-02-14T15:18:14;16.77;;;4.43;;
8675;SDS011;4375;52.486;13.424;2024-02-14T15:20:40;16.83;;;3.83;;
8675;SDS011;4375;52.486;13.424;2024-02-14T15:23:06;16.47;;;4.07;;
8675;SDS011;4375;52.486;13.424;2024-02-14T15:25:32;16.27;;;3.50;;
8675;SDS011;4375;52.486;13.424;2024-02-14T15:27:59;18.73;;;4.30;;
8675;SDS011;4375;52.486;13.424;2024-02-14T15:30:43;20.00;;;4.40;;
8675;SDS011;4375;52.486;13.424;2024-02-14T15:33:27;23.47;;;7.17;;
8675;SDS011;4375;52.486;13.424;2024-02-14T15:35:53;23.83;;;5.10;;
8675;SDS011;4375;52.486;13.424;2024-02-14T15:38:20;21.93;;;4.20;;
8675;SDS011;4375;52.486;13.424;2024-02-14T15:40:46;15.50;;;3.87;;
8675;SDS011;4375;52.486;13.424;2024-02-14T15:43:15;16.30;;;3.93;;
8675;SDS011;4375;52.486;13.424;2024-02-14T15:45:41;16.27;;;3.73;;
8675;SDS011;4375;52.486;13.424;2024-02-14T15:48:07;15.80;;;3.80;;
8675;SDS011;4375;52.486;13.424;2024-02-14T15:50:34;23.90;;;3.80;;
8675;SDS011;4375;52.486;13.424;2024-02-14T15:53:00;18.87;;;3.97;;
8675;SDS011;4375;52.486;13.424;2024-02-14T15:55:30;19.00;;;4.67;;
8675;SDS011;4375;52.486;13.424;2024-02-14T15:57:59;18.13;;;4.20;;
8675;SDS011;4375;52.486;13.424;2024-02-14T16:17:13;20.40;;;3.87;;
8675;SDS011;4375;52.486;13.424;2024-02-14T16:31:17;17.93;;;3.80;;
8675;SDS011;4375;52.486;13.424;2024-02-14T17:41:07;17.10;;;4.50;;
8675;SDS011;4375;52.486;13.424;2024-02-14T17:50:43;18.57;;;4.73;;
8675;SDS011;4375;52.486;13.424;2024-02-14T17:53:15;19.17;;;4.97;;
8675;SDS011;4375;52.486;13.424;2024-02-14T17:59:41;22.90;;;4.80;;
8675;SDS011;4375;52.486;13.424;2024-02-14T18:02:07;18.60;;;4.73;;